Jesus Carrillo

Olheiro-Chefe - Sporting Cristal
6 Ago 2028
Domingo
Processo

Personalidade

Adaptabilidade (4) Ambição (6) Controvérsia (16) Lealdade (7) Pressão (20) Profissionalismo (5) Espírito Esportivo (1) Temperamento (5)

Perfil

Estilo de Treinamento Democrático
Licença Continental Pro
Determinação 10
Gestão de Pessoas 6
Motivação 11
Disciplina 13
Satisfação no Trabalho
52%
Fadiga
0%
Função Olheiro-Chefe
Salário 29.6K p/s
Contrato 14.03.2029

Desempenho

Comportamento Bom
Eficácia do Treinamento
27%
Desenvolvimento do Jogador
65%
Prevenção de Lesões
20%
Implementação Tática
60%

Eventos Recentes

Avaliou um jogador agora
Avaliou um jogador agora
Participou de uma reunião de recrutamento agora
Participou de uma reunião de recrutamento agora
Recomendou um alvo de transferência agora
Recomendou um alvo de transferência agora
Recomendou um alvo de transferência agora
Recomendou um alvo de transferência agora

Monitorando agora

332
Jogador Clube Status Habilidade Confiança Observado Última observação Último voto
Luciano Cosentino Wanderers Ativo 123 / 122 40% 3 05.08.2028 -
Carlton Morris Derby County Ativo 124 / 127 40% 2 05.08.2028 -
Hwang Hee-Chan Wolverhampton Ativo 149 / 139 40% 1 05.08.2028 -
Camillo Tavernelli Arezzo Ativo 116 / 120 40% 4 01.08.2028 -
Johnny Kenny Preston Ativo 123 / 124 40% 4 01.08.2028 -
Layton Stewart Barnet Ativo 124 / 110 40% 2 01.08.2028 -
Liam Cullen Swansea City Ativo 120 / 126 40% 5 31.07.2028 -
Lamine Bèye Portimonense Ativo 107 / 129 40% 2 31.07.2028 -
Mateo Faure BATE Ativo 86 / 99 40% 2 31.07.2028 -
Ignacio Yepez Cerrito Ativo 108 / 115 40% 2 31.07.2028 -
Daniel Banjaqui Benfica Ativo 134 / 136 40% 1 31.07.2028 -
Álvaro López Plaza Colonia Ativo 120 / 122 40% 1 31.07.2028 -
Jorge Cabezas Hurtado Watford Ativo 123 / 116 40% 5 29.07.2028 -
Daniel Barrea Godoy Cruz Ativo 128 / 125 40% 3 29.07.2028 -
Che Adams Torino Ativo 142 / 141 40% 1 29.07.2028 -
Ryan Graydon Salford City Ativo 103 / 107 40% 2 28.07.2028 -
Victor Torp Bristol Rovers Ativo 128 / 140 40% 1 28.07.2028 -
Sam Dalby Bolton Wanderers Ativo 112 / 116 40% 5 26.07.2028 -
Thomas Schlupp BA All Stars Ativo 117 / 115 40% 2 26.07.2028 -
Kyle Wootton Stockport County Ativo 125 / 128 40% 4 25.07.2028 -
Jalen Blesa Oliveirense Ativo 133 / 129 40% 1 25.07.2028 -
César Magallan Estudiantes de Merida Ativo 112 / 111 40% 2 22.07.2028 -
Martim Cunha Porto Ativo 120 / 116 40% 4 22.07.2028 -
Amine Boukamir Charleroi Ativo 111 / 108 40% 5 22.07.2028 -
Kiani Inge Groningen Ativo 120 / 128 40% 3 22.07.2028 -
Ryan Kavuma-McQueen Accrington Stanley Ativo 131 / 136 40% 8 22.07.2028 -
Admir Bristrić Cambridge United Ativo 121 / 117 40% 2 22.07.2028 -
Simone Suppa Virtus Verona Ativo 98 / 93 40% 2 21.07.2028 -
Itumeleng Jali Spezia Ativo 109 / 119 40% 1 21.07.2028 -
Olivier Leroux Mouscron Ativo 98 / 113 40% 8 17.07.2028 -
Jan Bürger Northampton Town Ativo 123 / 121 40% 13 17.07.2028 -
Marco Tumminello Benevento Ativo 121 / 112 40% 2 17.07.2028 -
Sam Szmodics Ipswich Town Ativo 134 / 132 40% 1 17.07.2028 -
Norman Bassette Coventry City Ativo 131 / 119 40% 2 15.07.2028 -
Aaron Collins Milton Keynes Dons Ativo 117 / 129 40% 10 14.07.2028 -
Emanuele Scipioni Monopoli Ativo 108 / 113 40% 1 14.07.2028 -
Rui Costa Port Vale Ativo 114 / 117 40% 1 14.07.2028 -
Mauro Valiente Estudiantes Ativo 116 / 112 40% 1 11.07.2028 -
Emiliano Gómez Boston River Ativo 127 / 118 40% 1 11.07.2028 -
Diego Vargas Universidad de Concepcion Ativo 91 / 94 40% 2 10.07.2028 -
Riquelme Thompson-Jones Accrington Stanley Ativo 114 / 127 40% 3 10.07.2028 -
Tobías Ramírez River Plate Ativo 133 / 132 40% 2 10.07.2028 -
Arthur Sales Maritzburg United Ativo 127 / 116 40% 8 09.07.2028 -
Alassana Jatta Notts County Ativo 111 / 111 40% 1 08.07.2028 -
Cheveyo Tsawa Club Brugge Ativo 119 / 133 40% 2 06.07.2028 -
Artem Nosachev Spartak Moscow Ativo 92 / 85 40% 1 06.07.2028 -
Jake Evans Crewe Alexandra Ativo 111 / 117 40% 2 05.07.2028 -
Nicolò Moranduzzo Renate Ativo 88 / 99 40% 1 03.07.2028 -
Josh Nichols Oldham Athletic Ativo 129 / 118 40% 7 02.07.2028 -
Mirza Ćatović VfB Stuttgart Ativo 127 / 125 40% 1 02.07.2028 -
Sam Nombe Milton Keynes Dons Ativo 113 / 109 40% 5 01.07.2028 -
Jérémy Le Douaron Palermo Ativo 132 / 135 40% 5 01.07.2028 -
David Okereke Cremonese Ativo 120 / 131 40% 1 30.06.2028 -
Gideon Manaseh Ikorodu City Ativo 83 / 95 40% 1 29.06.2028 -
Simone Mazzocchi Cosenza Ativo 133 / 123 40% 5 28.06.2028 -
John Yeboah Venezia Ativo 138 / 120 40% 3 27.06.2028 -
Nicola Rauti Vicenza Ativo 116 / 111 40% 1 27.06.2028 -
Job Ochieng Real Sociedad Ativo 105 / 114 40% 4 26.06.2028 -
Sam Smith Wrexham Ativo 120 / 125 40% 3 26.06.2028 -
Tiago Gordillo San Miguel Ativo 90 / 96 40% 2 25.06.2028 -
Carlos Gugenheim Grimsby Town Ativo 110 / 113 40% 1 23.06.2028 -
Ante Crnac Bristol Rovers Ativo 124 / 128 40% 2 22.06.2028 -
Thijs Kraaijeveld USM Alger Ativo 111 / 131 40% 2 17.06.2028 -
Kleis Bozhanaj Modena Ativo 132 / 128 40% 2 17.06.2028 -
Luca Moro Padova Ativo 117 / 117 40% 2 17.06.2028 -
Federico Matarán Giana Erminio Ativo 93 / 106 40% 1 17.06.2028 -
Miguel Figueiredo Benfica Ativo 116 / 136 40% 5 16.06.2028 -
Evidence Makgopa Orlando Pirates Ativo 113 / 124 40% 3 15.06.2028 -
Timur Suleimanov Nizhniy Novgorod Ativo 132 / 118 40% 1 15.06.2028 -
Andrey Ivlev Nizhniy Novgorod Ativo 102 / 123 40% 3 14.06.2028 -
Tyler Fletcher Rotherham United Ativo 123 / 122 40% 4 14.06.2028 -
Dale Taylor Blackpool Ativo 110 / 113 40% 3 13.06.2028 -
Marcus Browne AFC Wimbledon Ativo 117 / 106 40% 1 13.06.2028 -
Matías Abaldo Defensor Sporting Ativo 135 / 131 40% 1 11.06.2028 -
Stephen Humphrys Bradford City Ativo 106 / 105 40% 4 30.05.2028 -
Josh Stokes Bristol City Ativo 121 / 116 40% 5 30.05.2028 -
Vyacheslav Grulev Nizhniy Novgorod Ativo 117 / 120 40% 3 30.05.2028 -
Ole Romeny Oxford United Ativo 109 / 120 40% 2 29.05.2028 -
Rayan Kolli Queens Park Rangers Ativo 114 / 112 40% 1 29.05.2028 -
Armstrong Oko-Flex Levski Ativo 135 / 132 40% 7 28.05.2028 -
Manuel De Luca Cremonese Ativo 138 / 132 40% 2 28.05.2028 -
Unai Ropero Alavés Ativo 127 / 123 40% 1 28.05.2028 -
Giuseppe Panico Foggia Ativo 126 / 116 40% 4 26.05.2028 -
Charlie Kelman Barnsley Ativo 124 / 126 40% 2 26.05.2028 -
Gennaro Tutino Sampdoria Ativo 119 / 129 40% 2 23.05.2028 -
Facundo Lescano Salernitana Ativo 118 / 114 40% 1 15.05.2028 -
Alejandro Cantero Jomo Cosmos Ativo 128 / 117 40% 1 10.05.2028 -
Igor Tyjon Barrow AFC Ativo 105 / 115 40% 1 09.05.2028 -
Miro Arsenal Tula Ativo 109 / 119 40% 5 07.05.2028 -
Mees Rijks Bristol Rovers Ativo 109 / 118 40% 2 06.05.2028 -
Gabriele Gori Ascoli Ativo 107 / 109 40% 4 06.05.2028 -
Siyabonga Mabena Bidvest Wits Ativo 126 / 118 40% 10 04.05.2028 -
Gaël Lafont Dolomiti Bellunesi Ativo 114 / 111 40% 1 04.05.2028 -
Nana Nuhu WAFA Ativo 102 / 95 40% 1 04.05.2028 -
Kaye Furo Reading Ativo 119 / 121 40% 1 02.05.2028 -
Vincenzo Damiano Atalanta Ativo 108 / 121 40% 1 02.05.2028 -
Amin Nabizada Exeter City Ativo 118 / 119 40% 1 02.05.2028 -
Ibrahim Fullah Charlton Athletic Ativo 115 / 127 40% 1 02.05.2028 -
Emanuele Schimmenti Potenza Ativo 107 / 118 40% 3 29.04.2028 -
Elijah Adebayo Luton Town Ativo 123 / 126 40% 3 27.04.2028 -
Wesley Pomba Rukh Ativo 112 / 123 40% 1 26.04.2028 -
Walid Cheddira Avellino Ativo 130 / 134 40% 2 25.04.2028 -
Felipe Varela Trujillanos Ativo 87 / 96 40% 1 24.04.2028 -
Francisco Arias Gimnasia y Esgrima Ativo 95 / 102 40% 1 22.04.2028 -
Musa Danjuma Umraniyespor Ativo 84 / 111 40% 1 21.04.2028 -
Samuel Kalu Botev Plovdiv Ativo 117 / 112 40% 1 18.04.2028 -
Bernardo Lima Porto Ativo 104 / 110 40% 7 16.04.2028 -
Callum Lang Preston Ativo 117 / 112 40% 1 16.04.2028 -
Matthias Phaëton CSKA Sofia Ativo 119 / 110 40% 1 13.04.2028 -
Erick Dolly Black Aces Ativo 113 / 121 40% 3 10.04.2028 -
Brayan Gil Baltika Ativo 123 / 133 40% 6 10.04.2028 -
Tashreeq Matthews Bloemfontein Celtic Ativo 125 / 113 40% 5 07.04.2028 -
Randy Nteka Krasnodar Ativo 125 / 136 40% 1 06.04.2028 -
Christian Saydee Wigan Athletic Ativo 109 / 110 40% 2 05.04.2028 -
Vegard Erlien Tromso Ativo 116 / 114 40% 1 27.03.2028 -
Yuri Tanque Criciuma Ativo 119 / 116 40% 1 23.03.2028 -
Kaique Kenji Fortaleza Ativo 122 / 128 40% 1 23.03.2028 -
Joel Asoro Apollon Ativo 129 / 126 40% 1 23.03.2028 -
Pedro Marques Apollon Ativo 113 / 128 40% 2 20.03.2028 -
Simone Rabbi Ravenna Ativo 108 / 108 40% 1 20.03.2028 -
Mikhail Ignatov Sochi Ativo 109 / 122 40% 2 19.03.2028 -
Kwadwo Duah Ludogorets Ativo 142 / 121 40% 1 19.03.2028 -
François Kamano Sochi Ativo 112 / 115 40% 1 17.03.2028 -
Etiosa Ighodaro Kaizer Chiefs Ativo 116 / 116 40% 4 14.03.2028 -
Peter Christiansen Haugesund Ativo 126 / 132 40% 1 09.03.2028 -
Thiago Silvero Vélez Ativo 132 / 137 40% 1 21.02.2028 -
Jamie Wähling Hibernians Ativo 79 / 82 40% 1 20.02.2028 -
Olivier Mambwa Young Boys Ativo 100 / 121 40% 1 17.02.2028 -
Teboho Mokoena Black Aces Ativo 86 / 81 40% 2 15.02.2028 -
Kirill Kistenev Botev Vratsa Ativo 81 / 93 40% 1 15.02.2028 -
Victor Hernandez Santa Fe Ativo 121 / 126 40% 9 14.02.2028 -
Colin Guske Orlando City Ativo 100 / 91 40% 1 13.02.2028 -
Jorthy Mokio ADO Den Haag Ativo 138 / 130 40% 1 12.02.2028 -
Edvard Pettersen Sandefjord Ativo 110 / 127 40% 2 11.02.2028 -
Esquerdinha Notts County Ativo 119 / 136 40% 1 09.02.2028 -
Santiago Colidio Liepaja Ativo 97 / 96 40% 1 09.02.2028 -
Jonás Luna Wanderers Ativo 115 / 130 40% 1 08.02.2028 -
Brandon Vázquez Austin FC Ativo 114 / 123 40% 1 08.02.2028 -
Favio Cabral Mitre Ativo 120 / 114 40% 1 03.01.2028 -
Tomás Fernández Aldosivi Ativo 113 / 109 40% 1 03.01.2028 -
Leandro Suhr Boston River Ativo 118 / 122 40% 1 03.01.2028 -
Lucas Nicol Mjondalen Ativo 70 / 82 40% 1 27.12.2027 -
David Damboama El-Kanemi Warriors Ativo 82 / 81 40% 1 27.12.2027 -
Adalberto Peñaranda Deportivo Tachira Ativo 120 / 107 40% 1 20.12.2027 -
Jonás Acevedo Instituto Ativo 119 / 121 40% 1 20.12.2027 -
Nazareno Funez Defensa y Justicia Ativo 122 / 116 40% 1 20.12.2027 -
Facundo Balatti Penarol Ativo 107 / 105 40% 1 16.12.2027 -
Ivan Borges Defensores Ativo 86 / 93 40% 1 13.12.2027 -
Nazareno Roselli Defensa y Justicia Ativo 115 / 120 40% 2 01.12.2027 -
Alan Cantero Juan Aurich Ativo 117 / 121 69% 1 01.12.2027 Aprovar
Nahuel Leivas Montevideo City Torque Ativo 102 / 110 40% 1 01.12.2027 -
Luka Andrade Montevideo City Torque Ativo 102 / 107 40% 4 29.11.2027 -
Jakob Gunnar Sigurðsson KR Ativo 89 / 93 40% 3 29.11.2027 -
Anthony da Costa Artigas Ativo 85 / 88 40% 9 27.11.2027 -
Fletcher Boyd Accrington Stanley Ativo 102 / 104 40% 2 27.11.2027 -
Amaury Morales Leon Ativo 110 / 122 40% 3 26.11.2027 -
Lamin Sillah Exeter City Ativo 90 / 102 40% 2 26.11.2027 -
Pavel Núñez Zadar Ativo 96 / 77 40% 2 26.11.2027 -
Julian Hall Real Salt Lake Ativo 101 / 126 40% 4 25.11.2027 -
Valentino Acuña Newell's Old Boys Ativo 119 / 121 40% 1 25.11.2027 -
Jeremías Merlo Gimnasia La Plata Ativo 124 / 126 40% 1 25.11.2027 -
Juan Esteban García Deportes Tolima Ativo 86 / 101 40% 3 23.11.2027 -
Rafael Moreno Atletico Venezuela Ativo 109 / 120 40% 6 22.11.2027 -
Julián Bragado Morón Ativo 81 / 84 40% 8 22.11.2027 -
Brandon Álvarez Penarol Ativo 93 / 99 40% 1 21.11.2027 -
Artur Kozyrev Volna Ativo 75 / 78 40% 1 21.11.2027 -
Mateo Pérez Curci Independiente Ativo 122 / 125 40% 1 20.11.2027 -
Nicolás Ferreira Artigas Ativo 80 / 95 40% 1 20.11.2027 -
Hassan Beja AFC Leopards Ativo 97 / 103 40% 8 19.11.2027 -
Joel Ezra Enyimba Ativo 87 / 112 40% 1 19.11.2027 -
Ramiro Jara Racing Ativo 89 / 86 40% 9 17.11.2027 -
Santiago Uriza Vélez Ativo 93 / 97 40% 2 16.11.2027 -
Lander Astiazarán Real Sociedad Ativo 101 / 120 40% 1 16.11.2027 -
Bautista Carboni Defensores Unidos Ativo 104 / 105 40% 1 16.11.2027 -
Matvii Ponomarenko Dynamo Kyiv Ativo 127 / 137 40% 1 11.11.2027 Mais informações
Facundo Rodríguez Talleres Ativo 88 / 98 40% 8 10.11.2027 -
Andy Rojas New York Red Bulls Ativo 106 / 109 40% 3 09.11.2027 -
Matías Cantero All Boys Ativo 96 / 97 40% 1 09.11.2027 -
Luighi Palmeiras Ativo 111 / 120 40% 2 07.11.2027 -
Maximo Ingravidi Colón Ativo 102 / 104 40% 1 06.11.2027 -
Edison Gruezo Guadalajara Ativo 112 / 102 40% 5 05.11.2027 -
Miloš Luković RC Strasbourg Ativo 129 / 120 40% 3 02.11.2027 -
Bruno Fernández Independiente Ativo 95 / 88 40% 1 01.11.2027 -
Justin Ellis Orlando City Ativo 87 / 110 40% 1 31.10.2027 -
Luca Meirelles Kudrivka Ativo 114 / 119 40% 4 27.10.2027 -
Matija Popović Fakel Ativo 113 / 120 40% 1 26.10.2027 -
Valentino Huertas Morón Ativo 103 / 107 40% 1 26.10.2027 -
Benjamín Rodríguez Albion Ativo 76 / 95 40% 1 26.10.2027 -
Eli Junior Kroupi Bournemouth Ativo 149 / 141 40% 2 21.10.2027 -
Ramiro Contreras Alvarado Ativo 72 / 90 40% 1 21.10.2027 -
Juan Diego Perdomo Depor Ativo 83 / 94 40% 1 21.10.2027 -
Matías Canedo Rampla Juniors Ativo 83 / 88 40% 1 21.10.2027 -
Anton Matković NK Osijek Ativo 124 / 114 40% 1 17.10.2027 -
Abubakar Garba Nasarawa United Ativo 84 / 92 40% 5 16.10.2027 -
Nicholas Simmonds FC Dallas Ativo 91 / 104 40% 1 11.10.2027 -
Nahuel Reyes Mitre Ativo 85 / 88 40% 1 07.10.2027 -
Egor Yuschenko Lida Ativo 70 / 80 40% 1 06.10.2027 -
Joaquín Varela Albion Ativo 75 / 85 40% 1 06.10.2027 -
Luca Feler Vélez Ativo 96 / 105 40% 1 05.10.2027 -
Mohamed Bolivar Barranquilla Ativo 92 / 93 40% 1 05.10.2027 -
Alejandro Garay Independiente Ativo 92 / 96 40% 1 04.10.2027 -
Jhon Aponza Boca Juniors Ativo 113 / 110 40% 2 02.10.2027 -
Chimobi Igwilo Rangers International Ativo 94 / 96 40% 5 01.10.2027 -
Gabriel Mujica Envigado Ativo 76 / 85 40% 2 01.10.2027 -
Kevin Angulo America de Cali Ativo 102 / 106 40% 2 30.09.2027 -
Juan Rodríguez Cerro Largo Ativo 99 / 105 40% 2 29.09.2027 -
Idris Ajiya Nasarawa United Ativo 95 / 95 40% 2 29.09.2027 -
Dylan Cabral Arsenal Ativo 97 / 110 40% 4 28.09.2027 -
Dániel Pintér Inter Miami CF Ativo 81 / 90 40% 1 28.09.2027 -
Maren Kefas Plateau United Ativo 94 / 93 40% 5 24.09.2027 -
Diego Robles Union Espanola Ativo 75 / 89 40% 1 24.09.2027 -
Alan Torterolo Defensor Sporting Ativo 92 / 108 40% 8 21.09.2027 -
Axel Pedrozo Almagro Ativo 83 / 90 40% 1 21.09.2027 -
Elion Krosa Odd Ativo 84 / 84 40% 1 20.09.2027 -
Ruben Ramos LA Galaxy Ativo 93 / 106 40% 2 17.09.2027 -
Joseph Abah Remo Stars Ativo 75 / 100 40% 2 15.09.2027 -
Stanley Amon Bayelsa United Ativo 83 / 97 40% 7 10.09.2027 -
Chineme Chinonso Ikorodu City Ativo 87 / 99 40% 3 07.09.2027 -
Tiago Pucciarelli IF Elfsborg Ativo 93 / 108 40% 4 07.09.2027 -
Mbekezeli Mbokazi Chicago Fire Ativo 133 / 140 40% 1 06.09.2027 -
Alejandro Leiva Patronato Ativo 100 / 102 40% 1 06.09.2027 -
Omar Bautista Gerez Central Córdoba SdE Ativo 89 / 89 40% 3 03.09.2027 -
Ahmed Khaled Paralimni Ativo 88 / 111 40% 1 22.08.2027 -
Serge Daura PWD Bamenda Ativo 91 / 109 40% 2 21.08.2027 -
Godbless Ayeke AS Bakaridjan Ativo 79 / 77 40% 1 20.08.2027 -
Ezekiel Kwame Alladoh Philadelphia Union Ativo 117 / 122 40% 3 19.08.2027 -
Alen Vukaj Alcione Milano Ativo 97 / 110 40% 1 16.08.2027 -
Michael Noumon Heart of Lions Ativo 74 / 88 40% 1 16.08.2027 -
Miloš Jovičić Zabbar St. Patrick Ativo 100 / 110 40% 3 14.08.2027 -
Darlvin Yeboah Bechem United Ativo 85 / 78 40% 3 13.08.2027 -
Dani Ángel Sampdoria Ativo 94 / 103 40% 1 09.08.2027 -
Fletcher Holman Swindon Town Ativo 91 / 96 40% 1 06.08.2027 -
Ryan Oné Sheffield United Ativo 121 / 110 40% 1 05.07.2027 -
Nazif Inoussa Benfica Ativo 83 / 79 40% 1 28.06.2027 -
Issa Yusuf Shooting Stars Ativo 88 / 105 40% 1 24.06.2027 -
Tommaso Cecotti Carpi Ativo 84 / 109 40% 9 23.06.2027 -
Andrea Bertoncini Triestina Ativo 95 / 87 40% 4 23.06.2027 -
Leandro Martins Benfica Ativo 93 / 106 40% 3 21.06.2027 -
Godwin Oham Warri Wolves Ativo 95 / 94 40% 2 21.06.2027 -
Lisandro Alzugaray Universitario Ativo 115 / 117 69% 1 21.06.2027 Aprovar
Olalekan Adeleke Remo Stars Ativo 79 / 92 40% 1 20.06.2027 -
Riley Owen Stevenage Ativo 95 / 121 40% 4 13.06.2027 -
Kazunari Kita Real Sociedad Ativo 98 / 102 40% 7 13.06.2027 -
Hosea Michael Remo Stars Ativo 90 / 103 40% 1 13.06.2027 -
Gonçalo Oliveira Benfica Ativo 101 / 120 40% 10 01.06.2027 -
Ramadan Ashour Sporting Cristal Ativo 120 / 120 67% 1 01.06.2027 Aprovar
Rivaldo Mkhize Black Aces Ativo 72 / 76 40% 8 31.05.2027 -
Jenson Jones Walsall Ativo 98 / 108 40% 5 28.05.2027 -
Tiago Freitas Benfica Ativo 98 / 125 40% 4 17.05.2027 -
Zane Albarus Shrewsbury Town Ativo 106 / 99 40% 9 14.05.2027 -
Edwin Asamoah Berekum Chelsea Ativo 82 / 90 40% 4 10.05.2027 -
Moncef Zekri Sporting CP Ativo 95 / 118 40% 1 04.05.2027 -
Samuele di Benedetto Twente Ativo 114 / 125 40% 2 01.05.2027 -
Lucas Agazzi Villarreal Ativo 120 / 127 40% 6 26.04.2027 -
David Ozoh Derby County Ativo 114 / 115 40% 4 25.04.2027 -
Charlie Gray Fleetwood Town Ativo 87 / 102 40% 4 24.04.2027 -
Halam Loboa Sevilla Ativo 130 / 132 40% 3 12.04.2027 -
Alessandro Zoboletti Sambenedettese Ativo 102 / 95 40% 1 09.04.2027 -
Chari Giwa US Bougouni Ativo 77 / 85 40% 3 08.04.2027 -
Kamaldeen Atiemo Wa All Stars Ativo 85 / 104 40% 1 08.04.2027 -
Konta Ismaily Ativo 87 / 96 40% 2 06.04.2027 -
Mpho Khethang FC Diarra Ativo 83 / 83 40% 1 02.04.2027 -
Bence Dárdai VfL Wolfsburg Ativo 118 / 133 40% 1 01.04.2027 -
James Dornelly Peterborough United Ativo 109 / 111 40% 4 31.03.2027 -
Sascha Britschgi AC Milan Ativo 124 / 123 40% 3 26.03.2027 -
Juan Pablo De la Reta Rayo Vallecano Ativo 112 / 107 40% 2 24.03.2027 -
Maldini Kacurri Grimsby Town Ativo 85 / 103 40% 1 17.03.2027 -
Wessel Kuhn PSV Ativo 97 / 120 40% 1 17.03.2027 -
Santiago Fernández Talleres Ativo 122 / 120 40% 1 09.03.2027 -
Cemran Dansin Orlando Pirates Ativo 121 / 117 40% 1 04.03.2027 -
Makar Vysochenko Spartak Moscow Ativo 72 / 92 40% 1 27.02.2027 -
Agustín Medina Lanús Ativo 107 / 119 40% 2 26.02.2027 -
Samuele Diodato Lumezzane Ativo 92 / 85 40% 1 26.02.2027 -
Afriyie Sulemana WAFA Ativo 96 / 80 40% 1 23.02.2027 -
Marcelo Camargo Blackpool Ativo 111 / 114 40% 1 13.02.2027 -
Lucas Mbamba Westerlo Ativo 84 / 106 40% 1 10.02.2027 -
Per Kloosterboer Utrecht Ativo 100 / 115 40% 1 09.02.2027 -
Everardo López Betis Ativo 127 / 133 40% 1 08.02.2027 -
Matteo Pérez Vinlöf Dinamo Zagreb Ativo 126 / 133 40% 1 02.02.2027 -
Alejo Gelsomino Gimnasia La Plata Ativo 99 / 108 40% 1 01.02.2027 -
Diogo Monteiro Tondela Ativo 107 / 95 40% 1 07.01.2027 -
Savely Nikiforov Zenit Ativo 68 / 85 40% 1 07.01.2027 -
Galo Galarza Estudiantes Ativo 92 / 113 40% 1 06.01.2027 -
Alan Forneris Racing Club Ativo 120 / 118 40% 1 02.01.2027 -
Juan Fernándes Pinto Almagro Ativo 106 / 108 40% 1 31.12.2026 -
Darwin Soteldo Real Sociedad Ativo 94 / 116 40% 1 29.12.2026 -
Louis Leroux FC Nantes Ativo 111 / 126 40% 1 28.12.2026 -
Caleb Yirenkyi Coventry City Ativo 130 / 128 40% 1 28.12.2026 -
Celías Ingenthron Platense Ativo 99 / 111 40% 1 21.12.2026 -
Angelo Campos Juan Aurich Ativo 104 / 110 65% 1 14.12.2026 Aprovar
Illaijh de Ruijter ADO Den Haag Ativo 120 / 121 40% 1 03.12.2026 -
Tyrhys Dolan Espanyol Ativo 124 / 128 40% 1 29.11.2026 -
Sergey Pinyaev Lokomotiv Moscow Ativo 131 / 133 40% 2 27.11.2026 -
Isaac Matondo Koper Ativo 99 / 101 40% 1 27.11.2026 -
Alexis Steimbach Gimnasia La Plata Ativo 113 / 123 40% 1 27.11.2026 -
Ekain Orobengoa Real Sociedad Ativo 88 / 113 40% 2 25.11.2026 -
Jáder Valencia Deportes Tolima Ativo 106 / 118 40% 2 24.11.2026 -
Alexander Aravena Portland Timbers Ativo 123 / 139 40% 1 23.11.2026 -
Jacques Siwe Rubin Ativo 125 / 116 40% 3 22.11.2026 -
Tio Cipot NK Maribor Ativo 116 / 122 40% 2 22.11.2026 -
Stephen Amankona Aduana Stars Ativo 83 / 80 40% 1 22.11.2026 -
Denzel Jubitana Neftchi Ativo 104 / 124 40% 1 19.11.2026 -
Martín Ojeda Orlando City Ativo 146 / 121 40% 1 16.11.2026 -
Kévin Denkey FC Cincinnati Ativo 117 / 139 40% 1 12.11.2026 -
Assad Al Hamlawi Universitatea Craiova Ativo 111 / 131 40% 1 10.11.2026 -
Bénie Traoré New York City Ativo 119 / 117 40% 1 10.11.2026 -
Petar Stanić Ludogorets Ativo 145 / 124 40% 2 09.11.2026 -
Lucas Cepeda Elche Ativo 137 / 125 40% 1 09.11.2026 -
Duncan McGuire Houston Dynamo Ativo 119 / 132 40% 1 08.11.2026 -
Ieltsin Camões Tromso Ativo 118 / 123 40% 1 28.10.2026 -
Ammar Ramadan DAC Dunajska Streda Ativo 137 / 136 40% 2 27.10.2026 -
Luis Caicedo Spartak 1918 Ativo 82 / 93 40% 1 23.10.2026 -
Jens Petter Hauge Bodo/Glimt Ativo 127 / 138 40% 1 20.10.2026 -
Bradley Zwane SuperSport United Ativo 115 / 129 40% 1 20.10.2026 -
Daniel Karlsbakk Sarpsborg 08 Ativo 133 / 122 40% 1 17.10.2026 Mais informações
Matías Pellegrini Vélez Ativo 117 / 118 40% 1 16.10.2026 -
Gaspar Duarte Rosario Central Ativo 109 / 110 40% 1 11.10.2026 -
Erik Botheim Viking Ativo 137 / 133 40% 1 07.10.2026 -
Simphiwe Selepe Orlando Pirates Ativo 106 / 122 40% 1 06.10.2026 -
Mateo Caballero Defensor Sporting Ativo 98 / 115 40% 1 09.09.2026 -
Lucas Souto Defensa y Justicia Ativo 121 / 116 40% 2 07.08.2026 -
Tomás Galván River Plate Ativo 119 / 131 40% 1 07.08.2026 -
Franco Sivetti Gimnasia y Tiro Ativo 102 / 111 40% 1 06.08.2026 -
Francisco Manenti Metropolitanos Ativo 106 / 113 40% 1 06.08.2026 -
Bongani Zungu Ajax Cape Town Ativo 131 / 126 40% 1 05.08.2026 -
Carlo Lattanzio San Martín SJ Ativo 111 / 99 40% 1 03.08.2026 -
Oscar Garrido Mitre Ativo 117 / 120 40% 1 02.08.2026 -
Brahim Díaz Real Madrid Ativo 160 / 134 40% 1 02.08.2026 -
Enzo Giménez Queretaro Ativo 137 / 119 40% 1 02.08.2026 -
Roberto López Leganés Ativo 130 / 118 40% 1 01.08.2026 -
Chidera Ejuke Sevilla Ativo 134 / 142 40% 1 01.08.2026 -
Francisco González Metilli Belgrano Ativo 134 / 125 40% 1 01.08.2026 -